Aérodrome :
LOGIN :

S'inscrire | Disclaimer

   EN    FR    IT 

 










Légende :    VFR   VFR Marginal   IFR   IFR Intensif   IFR Très Intensif
Visi : 
Plafond : 
>= 8 km
>= 3000ft
5 à 8 km
1000 à 3000 ft
1500m à 5 km
500 à 1000 ft
800 à 1500m
200 à 500 ft
< 800m
< 200 ft
Symboles :   Orages  Brouillard  Fortes neiges  Fortes précipitations  Vent > 20 kt
SIGMETs :   Divers  Orages  Givrage  Turbulence  Onde Orograph.  Cendres Volcan.







- Altitude de l'aérodrome : 364 ft
- Code IATA : FRA


EDDF - Frankfurt Int.

DERNIER METAR :
  • 250550Z 33008KT 9999 FEW016 BKN034 16/11 Q1022 NOSIG

METARs EXPIRÉS :
  • 250520Z 32008KT 9999 FEW012 BKN034 16/11 Q1022 NOSIG
  • 250450Z 32005KT 300V030 9999 FEW012 BKN035 15/11 Q1022 NOSIG
  • 250420Z 31007KT 280V340 9999 FEW012 BKN035 15/11 Q1021 NOSIG
  • 250350Z 31006KT 9999 FEW012 BKN035 14/11 Q1021 NOSIG
  • 250320Z 31007KT 9999 FEW017 SCT130 14/11 Q1021 NOSIG

TAF TAF EDDF
Valide du 25 à 06h jusqu'au 26 à 12h UTC


250500Z 2506/2612 31005KT 9999 SCT040
TEMPO 2506/2512 BKN030
TEMPO 2511/2518 35010KT
BECMG 2521/2524 04005KT
Pas de NOTAMs connus pour ce terrain.



MET'MAP, la Météo Aéronautique d'un coup d'oeil ! - Copyright ORBIFLY Décembre 2007 - Disclaimer

ORBIFLY MET'MAP TEAM :

Programmation & Développement : Alexandra Zaïnal
Conception & Développement : Baudouin d'Aumeries
Co-Programmation & Développement : Marc-Olivier Méhu
Soutien technique & logistique : Manuel Goepfert

Contact : metmap@orbifly.com




SOURCES & CREDITS :

   NOAA